createdAt,value
2023-09-13T00:00:16.558Z,87.83
2023-09-13T00:02:43.463Z,87.78
2023-09-13T00:05:10.686Z,87.63
2023-09-13T00:07:37.977Z,87.36
2023-09-13T00:10:06.322Z,87.50
2023-09-13T00:12:33.227Z,87.35
2023-09-13T00:15:02.247Z,87.51
2023-09-13T00:17:29.200Z,87.77
2023-09-13T00:19:57.371Z,87.89
2023-09-13T00:22:25.033Z,87.99
2023-09-13T00:24:52.040Z,87.99
2023-09-13T00:27:19.477Z,88.10
2023-09-13T00:29:46.529Z,88.02
2023-09-13T00:32:15.831Z,88.24
2023-09-13T00:34:42.641Z,88.30
2023-09-13T00:37:09.532Z,88.46
2023-09-13T00:39:39.559Z,88.33
2023-09-13T00:42:06.955Z,88.08
2023-09-13T00:44:34.287Z,87.97
2023-09-13T00:47:07.064Z,87.94
2023-09-13T00:50:06.849Z,88.08
2023-09-13T00:52:47.605Z,88.20
2023-09-13T00:55:25.520Z,88.20
2023-09-13T00:58:03.019Z,88.20
2023-09-13T01:00:31.717Z,88.36
2023-09-13T01:03:03.110Z,88.18
2023-09-13T01:05:32.304Z,88.41
2023-09-13T01:07:59.404Z,88.42
2023-09-13T01:10:28.508Z,88.31
2023-09-13T01:17:06.253Z,88.18
2023-09-13T01:19:56.763Z,87.94
2023-09-13T01:23:06.123Z,88.45
2023-09-13T01:25:55.540Z,88.38
2023-09-13T01:29:09.152Z,88.45
2023-09-13T01:31:38.992Z,88.36
2023-09-13T01:34:07.134Z,88.48
2023-09-13T01:36:40.476Z,88.71
2023-09-13T01:39:07.572Z,88.77
2023-09-13T01:41:38.988Z,88.60
2023-09-13T01:44:08.419Z,88.44
2023-09-13T01:46:37.042Z,88.32
2023-09-13T01:49:06.359Z,88.57
2023-09-13T01:51:34.503Z,88.64
2023-09-13T01:54:01.310Z,88.76
2023-09-13T01:56:28.472Z,88.72
2023-09-13T01:58:55.486Z,88.77
2023-09-13T02:01:24.303Z,88.67
2023-09-13T02:03:51.237Z,88.83
2023-09-13T02:06:19.250Z,89.01
2023-09-13T02:08:48.457Z,88.89
2023-09-13T02:11:15.569Z,88.85
2023-09-13T02:13:44.898Z,89.01
2023-09-13T02:16:13.212Z,89.32
2023-09-13T02:18:41.682Z,89.22
2023-09-13T02:21:11.161Z,89.24
2023-09-13T02:23:38.561Z,89.01
2023-09-13T02:26:05.283Z,89.39
2023-09-13T02:28:32.443Z,89.63
2023-09-13T02:30:59.291Z,89.55
2023-09-13T02:33:26.061Z,89.65
2023-09-13T02:35:54.151Z,89.76
2023-09-13T02:38:23.213Z,89.60
2023-09-13T02:40:51.303Z,89.66
2023-09-13T02:43:18.050Z,89.84
2023-09-13T02:45:45.127Z,89.99
2023-09-13T02:48:11.995Z,90.08
2023-09-13T02:50:41.235Z,90.16
2023-09-13T02:53:09.412Z,90.27
2023-09-13T02:55:37.676Z,90.35
2023-09-13T02:58:07.329Z,90.38
2023-09-13T03:00:34.285Z,90.21
2023-09-13T03:03:01.271Z,90.35
2023-09-13T03:05:28.098Z,90.41
2023-09-13T03:07:57.995Z,90.47
2023-09-13T03:10:27.603Z,90.60
2023-09-13T03:12:54.741Z,90.56
2023-09-13T03:15:21.487Z,90.47
2023-09-13T03:17:48.302Z,90.58
2023-09-13T03:20:16.327Z,90.60
2023-09-13T03:22:43.029Z,90.80
2023-09-13T03:25:10.285Z,90.72
2023-09-13T03:27:38.448Z,90.87
2023-09-13T03:30:06.418Z,90.72
2023-09-13T03:32:33.136Z,90.78
2023-09-13T03:34:59.924Z,90.98
2023-09-13T03:37:26.765Z,90.97
2023-09-13T03:39:53.648Z,91.10
2023-09-13T03:42:21.842Z,91.01
2023-09-13T03:44:49.973Z,91.18
2023-09-13T03:47:16.822Z,91.24
2023-09-13T03:49:43.575Z,91.21
2023-09-13T03:52:10.456Z,91.50
2023-09-13T03:54:37.743Z,91.45
2023-09-13T03:57:04.756Z,91.40
2023-09-13T03:59:31.550Z,91.62
2023-09-13T04:01:59.995Z,91.55
2023-09-13T04:04:27.557Z,91.38
2023-09-13T04:06:54.572Z,91.46
2023-09-13T04:09:22.727Z,91.38
2023-09-13T04:11:49.593Z,91.37
2023-09-13T04:14:16.421Z,91.40
2023-09-13T04:16:43.437Z,91.28
2023-09-13T04:19:11.877Z,91.54
2023-09-13T04:21:38.697Z,91.39
2023-09-13T04:24:14.648Z,91.49
2023-09-13T04:26:41.958Z,91.55
2023-09-13T04:29:08.934Z,91.61
2023-09-13T04:31:35.885Z,91.63
2023-09-13T04:34:04.455Z,91.51
2023-09-13T04:36:32.768Z,91.68
2023-09-13T04:39:01.193Z,91.69
2023-09-13T04:41:28.038Z,91.82
2023-09-13T04:43:54.763Z,91.70
2023-09-13T04:46:21.872Z,92.17
2023-09-13T04:48:48.845Z,91.84
2023-09-13T04:51:15.698Z,92.16
2023-09-13T04:53:44.013Z,91.89
2023-09-13T04:56:10.940Z,92.08
2023-09-13T04:58:39.114Z,91.92
2023-09-13T05:01:06.167Z,91.93
2023-09-13T05:03:33.139Z,91.86
2023-09-13T05:06:18.720Z,91.92
2023-09-13T05:08:51.500Z,92.01
2023-09-13T05:11:18.289Z,91.77
2023-09-13T05:13:48.634Z,91.69
2023-09-13T05:16:15.815Z,91.88
2023-09-13T05:18:42.581Z,91.81
2023-09-13T05:21:09.513Z,91.85
2023-09-13T05:23:36.440Z,91.97
2023-09-13T05:26:04.938Z,91.96
2023-09-13T05:28:35.351Z,91.92
2023-09-13T05:31:02.779Z,91.91
2023-09-13T05:33:29.685Z,92.02
2023-09-13T05:35:56.558Z,92.12
2023-09-13T05:38:23.611Z,92.17
2023-09-13T05:40:50.516Z,92.11
2023-09-13T05:43:19.266Z,92.00
2023-09-13T05:45:46.115Z,92.17
2023-09-13T05:48:13.529Z,92.02
2023-09-13T05:50:40.309Z,92.05
2023-09-13T05:53:07.175Z,92.05
2023-09-13T05:55:34.426Z,92.14
2023-09-13T05:58:01.757Z,92.05
2023-09-13T06:00:30.008Z,91.91
2023-09-13T06:02:57.059Z,92.14
2023-09-13T06:05:23.807Z,92.33
2023-09-13T06:07:51.505Z,92.09
2023-09-13T06:10:18.497Z,92.04
2023-09-13T06:12:46.431Z,92.03
2023-09-13T06:15:13.233Z,92.07
2023-09-13T06:17:41.337Z,92.04
2023-09-13T06:20:08.794Z,92.07
2023-09-13T06:22:35.710Z,91.85
2023-09-13T06:25:11.732Z,91.91
2023-09-13T06:27:38.782Z,91.93
2023-09-13T06:30:09.166Z,91.98
2023-09-13T06:32:41.911Z,92.10
2023-09-13T06:35:15.645Z,92.31
2023-09-13T06:37:46.041Z,92.04
2023-09-13T06:40:13.845Z,92.09
2023-09-13T06:42:58.492Z,92.08
2023-09-13T06:45:28.002Z,92.14
2023-09-13T06:47:55.378Z,92.06
2023-09-13T06:55:29.228Z,92.15
2023-09-13T06:58:00.271Z,92.18
2023-09-13T07:00:40.421Z,92.15
2023-09-13T07:03:17.711Z,92.24
2023-09-13T07:05:46.357Z,91.54
2023-09-13T07:08:13.103Z,90.76
2023-09-13T07:10:39.879Z,91.18
2023-09-13T07:13:06.668Z,91.34
2023-09-13T07:15:33.522Z,91.10
2023-09-13T07:18:01.156Z,90.87
2023-09-13T07:20:28.152Z,90.42
2023-09-13T07:22:56.424Z,90.28
2023-09-13T07:25:23.269Z,90.41
2023-09-13T07:27:50.034Z,89.87
2023-09-13T07:30:17.071Z,89.83
2023-09-13T07:32:43.840Z,89.27
2023-09-13T07:35:10.673Z,89.02
2023-09-13T07:37:37.886Z,89.14
2023-09-13T07:40:07.269Z,89.14
2023-09-13T07:42:34.068Z,88.93
2023-09-13T07:45:00.816Z,88.73
2023-09-13T07:47:29.061Z,88.36
2023-09-13T07:49:59.218Z,88.48
2023-09-13T07:52:28.255Z,88.21
2023-09-13T07:54:58.996Z,87.94
2023-09-13T07:57:27.163Z,87.95
2023-09-13T07:59:53.832Z,87.73
2023-09-13T08:02:22.022Z,87.45
2023-09-13T08:04:51.108Z,87.44
2023-09-13T08:07:17.945Z,87.51
2023-09-13T08:09:44.692Z,87.26
2023-09-13T08:12:11.435Z,87.15
2023-09-13T08:14:39.612Z,87.11
2023-09-13T08:17:06.467Z,87.09
2023-09-13T08:19:33.278Z,87.06
2023-09-13T08:21:59.989Z,87.20
2023-09-13T08:24:26.785Z,87.01
2023-09-13T08:26:53.592Z,86.82
2023-09-13T08:29:20.324Z,86.80
2023-09-13T08:31:48.499Z,86.72
2023-09-13T08:34:15.333Z,86.75
2023-09-13T08:36:42.143Z,86.87
2023-09-13T08:39:09.007Z,86.72
2023-09-13T08:41:36.036Z,86.62
2023-09-13T08:44:04.977Z,86.69
2023-09-13T08:46:33.065Z,86.36
2023-09-13T08:49:03.688Z,86.20
2023-09-13T08:51:30.952Z,86.12
2023-09-13T08:53:57.811Z,86.09
2023-09-13T08:56:25.041Z,86.27
2023-09-13T08:58:52.831Z,86.19
2023-09-13T09:01:24.195Z,86.07
2023-09-13T09:03:51.414Z,85.83
2023-09-13T09:06:21.358Z,85.88
2023-09-13T09:08:50.691Z,85.95
2023-09-13T09:11:22.586Z,85.87
2023-09-13T09:13:49.870Z,85.75
2023-09-13T09:16:18.364Z,85.50
2023-09-13T09:18:47.300Z,85.22
2023-09-13T09:21:14.835Z,85.09
2023-09-13T09:23:43.428Z,84.87
2023-09-13T09:26:10.693Z,85.00
2023-09-13T09:28:37.490Z,85.01
2023-09-13T09:31:05.175Z,84.97
2023-09-13T09:33:33.222Z,84.93
2023-09-13T09:36:01.474Z,84.76
2023-09-13T09:38:30.794Z,84.40
2023-09-13T09:41:01.620Z,84.29
2023-09-13T09:43:28.419Z,84.16
2023-09-13T09:45:55.692Z,84.00
2023-09-13T09:48:22.596Z,84.04
2023-09-13T09:50:52.411Z,83.96
2023-09-13T09:53:20.918Z,83.73
2023-09-13T09:55:47.932Z,83.45
2023-09-13T09:58:17.016Z,83.30
2023-09-13T10:00:47.970Z,82.98
2023-09-13T10:03:19.200Z,82.85
2023-09-13T10:05:57.343Z,82.69
2023-09-13T10:08:43.697Z,82.25
2023-09-13T10:11:14.613Z,82.01
2023-09-13T10:13:47.068Z,81.64
2023-09-13T10:16:15.646Z,81.55
2023-09-13T10:18:45.974Z,81.26
2023-09-13T10:21:15.271Z,81.23
2023-09-13T10:23:43.215Z,81.09
2023-09-13T10:26:11.345Z,80.58
2023-09-13T10:28:41.156Z,80.43
2023-09-13T10:31:19.645Z,80.00
2023-09-13T10:33:52.520Z,79.86
2023-09-13T10:36:32.382Z,79.62
2023-09-13T10:39:10.280Z,79.59
2023-09-13T10:41:47.907Z,79.56
2023-09-13T10:44:16.169Z,79.28
2023-09-13T10:46:44.533Z,79.07
2023-09-13T10:49:12.216Z,78.69
2023-09-13T10:51:41.393Z,78.44
2023-09-13T10:54:09.850Z,78.39
2023-09-13T10:56:36.834Z,78.39
2023-09-13T10:59:06.486Z,78.18
2023-09-13T11:01:35.371Z,77.98
2023-09-13T11:04:06.155Z,77.81
2023-09-13T11:06:34.457Z,77.60
2023-09-13T11:09:12.224Z,77.33
2023-09-13T11:11:38.979Z,77.41
2023-09-13T11:14:11.284Z,77.17
2023-09-13T11:16:41.160Z,76.85
2023-09-13T11:19:11.265Z,76.75
2023-09-13T11:21:48.539Z,76.58
2023-09-13T11:24:28.463Z,76.80
2023-09-13T11:27:10.968Z,76.83
2023-09-13T11:29:42.494Z,76.89
2023-09-13T11:32:17.675Z,76.82
2023-09-13T11:34:46.864Z,76.63
2023-09-13T11:37:15.089Z,76.57
2023-09-13T11:39:43.050Z,76.32
2023-09-13T11:42:17.981Z,76.21
2023-09-13T11:45:03.300Z,76.33
2023-09-13T11:47:35.016Z,76.14
2023-09-13T11:50:12.995Z,76.04
2023-09-13T11:53:11.204Z,75.95
2023-09-13T11:56:03.017Z,75.70
2023-09-13T11:58:39.743Z,75.55
2023-09-13T12:01:15.932Z,75.34
2023-09-13T12:04:13.277Z,75.30
2023-09-13T12:06:44.321Z,75.43
2023-09-13T12:09:17.937Z,75.72
2023-09-13T12:11:49.123Z,75.61
2023-09-13T12:14:31.036Z,75.81
2023-09-13T12:17:06.760Z,75.95
2023-09-13T12:19:37.420Z,75.64
2023-09-13T12:22:05.885Z,75.23
2023-09-13T12:24:33.019Z,74.98
2023-09-13T12:26:59.861Z,74.80
2023-09-13T12:29:26.691Z,74.63
2023-09-13T12:31:58.715Z,74.59
2023-09-13T12:34:26.070Z,74.56
2023-09-13T12:36:55.310Z,74.53
2023-09-13T12:39:23.366Z,74.39
2023-09-13T12:41:50.242Z,74.37
2023-09-13T12:44:19.526Z,74.37
2023-09-13T12:46:46.702Z,74.44
2023-09-13T12:49:13.528Z,74.55
2023-09-13T12:51:41.649Z,74.83
2023-09-13T12:54:14.568Z,75.08
2023-09-13T12:56:42.983Z,75.36
2023-09-13T12:59:10.233Z,75.39
2023-09-13T13:01:37.280Z,75.56
2023-09-13T13:04:08.374Z,75.56
2023-09-13T13:06:54.142Z,75.54
2023-09-13T13:09:25.410Z,75.65
2023-09-13T13:11:54.146Z,75.69
2023-09-13T13:14:24.976Z,75.56
2023-09-13T13:16:56.372Z,75.51
2023-09-13T13:19:47.821Z,75.44
2023-09-13T13:22:18.807Z,75.43
2023-09-13T13:24:46.560Z,75.49
2023-09-13T13:27:14.706Z,75.79
2023-09-13T13:29:41.450Z,76.17
2023-09-13T13:32:08.938Z,76.51
2023-09-13T13:34:36.063Z,76.68
2023-09-13T13:37:03.013Z,76.99
2023-09-13T13:39:29.794Z,77.09
2023-09-13T13:41:56.685Z,77.14
2023-09-13T13:44:24.871Z,77.29
2023-09-13T13:46:51.608Z,77.21
2023-09-13T13:49:19.597Z,77.25
2023-09-13T13:51:47.722Z,76.83
2023-09-13T13:54:15.629Z,77.03
2023-09-13T13:56:44.123Z,76.85
2023-09-13T13:59:12.122Z,76.71
2023-09-13T14:01:40.707Z,76.47
2023-09-13T14:04:07.740Z,76.24
2023-09-13T14:06:34.642Z,75.96
2023-09-13T14:09:07.436Z,75.90
2023-09-13T14:11:34.865Z,75.70
2023-09-13T14:14:01.762Z,75.46
2023-09-13T14:16:28.676Z,75.44
2023-09-13T14:18:56.893Z,75.57
2023-09-13T14:21:23.729Z,75.50
2023-09-13T14:23:50.507Z,75.12
2023-09-13T14:26:17.303Z,74.79
2023-09-13T14:28:44.094Z,74.44
2023-09-13T14:31:14.332Z,74.47
2023-09-13T14:33:43.849Z,74.34
2023-09-13T14:36:12.871Z,74.27
2023-09-13T14:38:40.157Z,74.08
2023-09-13T14:41:08.066Z,74.17
2023-09-13T14:43:34.820Z,73.78
2023-09-13T14:46:01.658Z,73.77
2023-09-13T14:48:28.814Z,73.74
2023-09-13T14:50:55.664Z,73.53
2023-09-13T14:53:23.929Z,73.36
2023-09-13T14:55:56.461Z,73.20
2023-09-13T14:58:23.690Z,72.94
2023-09-13T15:00:50.681Z,72.85
2023-09-13T15:03:17.495Z,72.50
2023-09-13T15:05:44.368Z,72.49
2023-09-13T15:08:11.485Z,72.35
2023-09-13T15:10:39.700Z,72.65
2023-09-13T15:13:07.356Z,72.44
2023-09-13T15:15:34.222Z,72.31
2023-09-13T15:18:01.479Z,72.05
2023-09-13T15:20:29.038Z,71.79
2023-09-13T15:22:55.922Z,72.08
2023-09-13T15:25:22.781Z,72.05
2023-09-13T15:27:51.166Z,71.86
2023-09-13T15:30:18.093Z,72.01
2023-09-13T15:32:46.001Z,71.91
2023-09-13T15:35:13.038Z,71.84
2023-09-13T15:37:39.870Z,71.88
2023-09-13T15:40:12.808Z,71.67
2023-09-13T15:42:40.694Z,71.71
2023-09-13T15:45:11.437Z,71.38
2023-09-13T15:47:38.851Z,71.43
2023-09-13T15:50:06.310Z,71.36
2023-09-13T15:52:33.155Z,71.00
2023-09-13T15:55:00.216Z,70.81
2023-09-13T15:57:27.246Z,70.76
2023-09-13T15:59:54.423Z,70.64
2023-09-13T16:02:25.942Z,70.44
2023-09-13T16:04:52.799Z,70.21
2023-09-13T16:07:19.935Z,69.89
2023-09-13T16:09:46.730Z,69.63
2023-09-13T16:12:13.664Z,69.68
2023-09-13T16:14:40.821Z,69.59
2023-09-13T16:17:08.320Z,69.46
2023-09-13T16:19:36.389Z,69.37
2023-09-13T16:22:05.265Z,69.33
2023-09-13T16:24:32.368Z,69.36
2023-09-13T16:26:59.209Z,69.24
2023-09-13T16:29:26.507Z,69.43
2023-09-13T16:31:53.388Z,69.24
2023-09-13T16:34:20.101Z,69.34
2023-09-13T16:36:48.359Z,69.40
2023-09-13T16:39:17.252Z,69.37
2023-09-13T16:41:44.453Z,69.41
2023-09-13T16:44:11.207Z,69.63
2023-09-13T16:46:38.278Z,69.64
2023-09-13T16:49:05.396Z,69.87
2023-09-13T16:51:32.285Z,69.80
2023-09-13T16:54:00.630Z,69.88
2023-09-13T16:56:27.503Z,69.88
2023-09-13T16:58:55.942Z,70.03
2023-09-13T17:01:22.760Z,70.17
2023-09-13T17:03:50.215Z,70.24
2023-09-13T17:06:17.462Z,70.38
2023-09-13T17:08:44.756Z,70.40
2023-09-13T17:11:14.502Z,70.29
2023-09-13T17:13:42.193Z,70.41
2023-09-13T17:16:10.085Z,70.59
2023-09-13T17:18:37.095Z,71.00
2023-09-13T17:21:05.012Z,70.70
2023-09-13T17:23:31.976Z,71.06
2023-09-13T17:25:59.167Z,71.21
2023-09-13T17:28:27.357Z,70.85
2023-09-13T17:30:54.359Z,71.01
2023-09-13T17:33:21.250Z,71.08
2023-09-13T17:35:49.097Z,71.30
2023-09-13T17:38:18.034Z,71.41
2023-09-13T17:40:45.358Z,71.69
2023-09-13T17:43:12.207Z,71.68
2023-09-13T17:45:40.719Z,71.47
2023-09-13T17:48:07.835Z,71.37
2023-09-13T17:50:35.054Z,71.18
2023-09-13T17:53:07.568Z,71.17
2023-09-13T17:55:35.607Z,71.16
2023-09-13T17:58:02.517Z,70.96
2023-09-13T18:00:29.665Z,71.00
2023-09-13T18:02:58.246Z,70.89
2023-09-13T18:05:25.231Z,70.75
2023-09-13T18:07:56.349Z,70.86
2023-09-13T18:10:23.375Z,70.86
2023-09-13T18:12:50.163Z,70.79
2023-09-13T18:15:17.199Z,70.67
2023-09-13T18:17:53.726Z,70.81
2023-09-13T18:20:23.373Z,70.74
2023-09-13T18:22:50.294Z,70.67
2023-09-13T18:25:17.391Z,70.94
2023-09-13T18:27:44.411Z,71.06
2023-09-13T18:30:12.217Z,71.21
2023-09-13T18:32:39.121Z,71.38
2023-09-13T18:35:07.060Z,71.46
2023-09-13T18:37:36.207Z,71.43
2023-09-13T18:40:04.838Z,71.45
2023-09-13T18:42:35.896Z,71.66
2023-09-13T18:45:03.903Z,71.56
2023-09-13T18:47:30.765Z,71.96
2023-09-13T18:49:57.831Z,71.79
2023-09-13T18:52:24.600Z,71.92
2023-09-13T18:54:52.793Z,71.92
2023-09-13T18:57:19.894Z,72.08
2023-09-13T18:59:47.080Z,72.17
2023-09-13T19:02:13.873Z,72.22
2023-09-13T19:04:41.061Z,72.29
2023-09-13T19:07:10.794Z,72.30
2023-09-13T19:09:39.729Z,72.44
2023-09-13T19:12:09.927Z,72.16
2023-09-13T19:14:36.673Z,72.31
2023-09-13T19:17:04.088Z,72.21
2023-09-13T19:19:32.922Z,72.30
2023-09-13T19:21:59.671Z,72.25
2023-09-13T19:24:26.440Z,72.32
2023-09-13T19:26:53.163Z,72.35
2023-09-13T19:29:21.472Z,72.39
2023-09-13T19:31:48.170Z,72.44
2023-09-13T19:34:15.056Z,72.55
2023-09-13T19:36:42.226Z,72.46
2023-09-13T19:39:09.217Z,72.68
2023-09-13T19:41:36.232Z,72.66
2023-09-13T19:44:03.052Z,72.83
2023-09-13T19:46:31.239Z,73.09
2023-09-13T19:48:58.029Z,72.93
2023-09-13T19:51:24.857Z,72.91
2023-09-13T19:53:54.674Z,72.98
2023-09-13T19:56:22.089Z,73.05
2023-09-13T19:58:50.277Z,73.33
2023-09-13T20:01:18.259Z,73.10
2023-09-13T20:03:47.519Z,73.14
2023-09-13T20:06:16.380Z,73.23
2023-09-13T20:08:43.804Z,73.29
2023-09-13T20:11:10.919Z,73.48
2023-09-13T20:13:40.482Z,73.67
2023-09-13T20:16:07.768Z,73.59
2023-09-13T20:18:34.478Z,73.66
2023-09-13T20:21:02.838Z,73.81
2023-09-13T20:23:30.366Z,73.72
2023-09-13T20:25:58.043Z,73.97
2023-09-13T20:28:27.350Z,73.90
2023-09-13T20:30:55.474Z,73.85
2023-09-13T20:33:22.691Z,73.91
2023-09-13T20:35:50.323Z,73.92
2023-09-13T20:38:19.165Z,74.05
2023-09-13T20:40:46.086Z,74.37
2023-09-13T20:43:13.236Z,74.40
2023-09-13T20:45:40.555Z,74.74
2023-09-13T20:48:08.387Z,74.85
2023-09-13T20:50:35.473Z,74.71
2023-09-13T20:53:02.510Z,74.71
2023-09-13T20:55:31.254Z,74.91
2023-09-13T20:58:00.246Z,74.77
2023-09-13T21:00:27.265Z,74.67
2023-09-13T21:02:54.200Z,74.51
2023-09-13T21:05:20.902Z,74.72
2023-09-13T21:07:47.660Z,74.85
2023-09-13T21:10:15.518Z,74.92
2023-09-13T21:12:43.932Z,74.96
2023-09-13T21:15:11.525Z,75.02
2023-09-13T21:17:38.592Z,75.16
2023-09-13T21:20:06.879Z,75.30
2023-09-13T21:22:33.708Z,75.29
2023-09-13T21:25:02.014Z,75.31
2023-09-13T21:27:28.963Z,75.51
2023-09-13T21:29:57.207Z,75.57
2023-09-13T21:32:23.907Z,75.45
2023-09-13T21:35:01.875Z,75.37
2023-09-13T21:37:32.182Z,75.55
2023-09-13T21:40:01.281Z,75.60
2023-09-13T21:42:28.083Z,75.85
2023-09-13T21:44:57.311Z,75.86
2023-09-13T21:47:24.081Z,75.89
2023-09-13T21:49:51.021Z,76.13
2023-09-13T21:52:18.041Z,76.18
2023-09-13T21:54:47.855Z,76.21
2023-09-13T21:57:15.279Z,76.26
2023-09-13T21:59:42.109Z,76.48
2023-09-13T22:02:10.709Z,76.33
2023-09-13T22:04:37.487Z,76.61
2023-09-13T22:07:04.483Z,76.59
2023-09-13T22:09:31.622Z,76.78
2023-09-13T22:11:58.671Z,76.44
2023-09-13T22:14:25.380Z,76.90
2023-09-13T22:16:52.097Z,77.06
2023-09-13T22:19:20.250Z,77.02
2023-09-13T22:21:47.021Z,77.12
2023-09-13T22:24:14.040Z,77.10
2023-09-13T22:26:40.967Z,77.35
2023-09-13T22:29:07.787Z,77.15
2023-09-13T22:31:34.601Z,77.12
2023-09-13T22:34:01.615Z,77.25
2023-09-13T22:36:29.772Z,77.54
2023-09-13T22:39:06.551Z,77.41
2023-09-13T22:41:37.883Z,77.44
2023-09-13T22:44:05.985Z,77.23
2023-09-13T22:46:33.097Z,77.26
2023-09-13T22:49:00.190Z,77.19
2023-09-13T22:51:27.243Z,77.59
2023-09-13T22:53:57.332Z,77.58
2023-09-13T22:56:24.441Z,77.46
2023-09-13T22:58:51.402Z,77.52
2023-09-13T23:01:18.253Z,77.61
2023-09-13T23:03:47.017Z,77.69
2023-09-13T23:06:14.039Z,77.68
2023-09-13T23:08:40.944Z,77.52
2023-09-13T23:11:09.278Z,77.66
2023-09-13T23:13:36.137Z,77.91
2023-09-13T23:16:05.410Z,77.76
2023-09-13T23:18:33.496Z,77.75
2023-09-13T23:21:00.980Z,77.83
2023-09-13T23:23:28.115Z,77.57
2023-09-13T23:25:59.397Z,77.88
2023-09-13T23:28:27.681Z,77.99
2023-09-13T23:31:02.720Z,77.77
2023-09-13T23:33:29.830Z,78.01
2023-09-13T23:35:56.567Z,77.99
2023-09-13T23:38:23.345Z,78.31
2023-09-13T23:40:50.074Z,78.06
2023-09-13T23:43:16.827Z,78.24
2023-09-13T23:45:46.432Z,78.38
2023-09-13T23:48:13.665Z,78.47
2023-09-13T23:50:40.609Z,78.49
2023-09-13T23:53:07.351Z,78.30
2023-09-13T23:55:34.080Z,78.37
2023-09-13T23:58:00.828Z,78.61
